createdAt,value
2018-06-14T00:00:01.247Z,14.17
2018-06-14T00:00:41.606Z,14.16
2018-06-14T00:01:22.052Z,14.12
2018-06-14T00:02:02.485Z,14.11
2018-06-14T00:02:42.891Z,14.12
2018-06-14T00:03:23.227Z,14.09
2018-06-14T00:04:03.699Z,14.17
2018-06-14T00:04:44.082Z,13.98
2018-06-14T00:05:24.511Z,13.93
2018-06-14T00:06:04.882Z,14.06
2018-06-14T00:06:45.325Z,13.98
2018-06-14T00:07:25.731Z,14.06
2018-06-14T00:08:06.166Z,13.98
2018-06-14T00:08:46.565Z,14.06
2018-06-14T00:09:26.912Z,14.11
2018-06-14T00:10:07.368Z,14.06
2018-06-14T00:10:47.756Z,14.05
2018-06-14T00:11:28.160Z,14.04
2018-06-14T00:12:08.674Z,14.02
2018-06-14T00:12:49.186Z,14.06
2018-06-14T00:13:29.595Z,14.13
2018-06-14T00:14:09.982Z,14.19
2018-06-14T00:14:50.460Z,14.12
2018-06-14T00:15:31.127Z,14.11
2018-06-14T00:16:11.487Z,14.01
2018-06-14T00:16:51.920Z,13.91
2018-06-14T00:17:32.273Z,13.94
2018-06-14T00:18:12.718Z,13.84
2018-06-14T00:18:53.174Z,13.86
2018-06-14T00:19:33.792Z,13.84
2018-06-14T00:20:14.234Z,13.8
2018-06-14T00:20:54.699Z,13.86
2018-06-14T00:21:35.135Z,13.81
2018-06-14T00:22:15.704Z,13.86
2018-06-14T00:22:55.947Z,13.81
2018-06-14T00:23:36.514Z,13.69
2018-06-14T00:24:16.759Z,13.72
2018-06-14T00:24:57.163Z,13.65
2018-06-14T00:25:37.554Z,13.72
2018-06-14T00:26:18.081Z,13.59
2018-06-14T00:26:58.469Z,13.66
2018-06-14T00:27:38.880Z,13.54
2018-06-14T00:28:19.256Z,13.57
2018-06-14T00:28:59.734Z,13.48
2018-06-14T00:29:40.081Z,13.51
2018-06-14T00:30:20.644Z,13.55
2018-06-14T00:31:01.042Z,13.61
2018-06-14T00:31:41.300Z,13.51
2018-06-14T00:32:21.672Z,13.59
2018-06-14T00:33:02.105Z,13.61
2018-06-14T00:33:42.512Z,13.57
2018-06-14T00:34:22.869Z,13.55
2018-06-14T00:35:03.346Z,13.48
2018-06-14T00:35:43.936Z,13.48
2018-06-14T00:36:24.424Z,13.48
2018-06-14T00:37:04.861Z,13.51
2018-06-14T00:37:45.258Z,13.5
2018-06-14T00:38:25.686Z,13.43
2018-06-14T00:39:06.279Z,13.44
2018-06-14T00:39:46.694Z,13.43
2018-06-14T00:40:27.050Z,13.48
2018-06-14T00:41:07.604Z,13.41
2018-06-14T00:41:47.895Z,13.46
2018-06-14T00:42:28.234Z,13.39
2018-06-14T00:43:08.644Z,13.29
2018-06-14T00:43:49.076Z,13.29
2018-06-14T00:44:29.531Z,13.21
2018-06-14T00:45:09.892Z,13.27
2018-06-14T00:45:50.350Z,13.31
2018-06-14T00:46:30.719Z,13.36
2018-06-14T00:47:11.109Z,13.32
2018-06-14T00:47:51.522Z,13.44
2018-06-14T00:48:31.954Z,13.47
2018-06-14T00:49:12.357Z,13.48
2018-06-14T00:49:52.817Z,13.48
2018-06-14T00:50:33.155Z,13.44
2018-06-14T00:51:14.185Z,13.47
2018-06-14T00:51:54.344Z,13.38
2018-06-14T00:52:35.107Z,13.32
2018-06-14T00:53:15.332Z,13.32
2018-06-14T00:53:55.821Z,13.36
2018-06-14T00:54:36.236Z,13.32
2018-06-14T00:55:16.682Z,13.35
2018-06-14T00:55:57.983Z,13.36
2018-06-14T00:56:38.038Z,13.36
2018-06-14T00:57:18.627Z,13.24
2018-06-14T00:57:58.939Z,13.22
2018-06-14T00:58:39.578Z,13.24
2018-06-14T00:59:19.979Z,13.25
2018-06-14T01:00:00.449Z,13.17
2018-06-14T01:00:40.911Z,13.16
2018-06-14T01:01:21.534Z,13.13
2018-06-14T01:02:03.800Z,13.09
2018-06-14T01:02:44.466Z,13.06
2018-06-14T01:03:24.689Z,13.09
2018-06-14T01:04:04.986Z,13.07
2018-06-14T01:04:45.491Z,13.1
2018-06-14T01:05:25.914Z,13.1
2018-06-14T01:06:06.272Z,13.16
2018-06-14T01:06:46.694Z,13.06
2018-06-14T01:07:27.122Z,13.12
2018-06-14T01:08:08.052Z,13.06
2018-06-14T01:08:48.386Z,13.04
2018-06-14T01:09:28.740Z,13.09
2018-06-14T01:10:09.166Z,13.12
2018-06-14T01:10:49.561Z,13.16
2018-06-14T01:11:29.967Z,13.12
2018-06-14T01:12:10.393Z,13.12
2018-06-14T01:12:50.884Z,13.07
2018-06-14T01:13:31.220Z,13.03
2018-06-14T01:14:13.186Z,13.03
2018-06-14T01:14:53.584Z,13.04
2018-06-14T01:15:34.056Z,13.12
2018-06-14T01:16:14.490Z,13.14
2018-06-14T01:16:54.854Z,13.24
2018-06-14T01:17:35.255Z,13.24
2018-06-14T01:18:15.651Z,13.22
2018-06-14T01:18:56.061Z,13.13
2018-06-14T01:19:36.684Z,13.17
2018-06-14T01:20:17.424Z,13.22
2018-06-14T01:20:57.532Z,13.21
2018-06-14T01:21:37.973Z,13.07
2018-06-14T01:22:18.335Z,13.17
2018-06-14T01:22:58.806Z,13.12
2018-06-14T01:23:39.241Z,13.04
2018-06-14T01:24:19.600Z,13.04
2018-06-14T01:25:00.063Z,12.99
2018-06-14T01:25:40.453Z,12.96
2018-06-14T01:26:20.859Z,13.06
2018-06-14T01:27:01.597Z,13.04
2018-06-14T01:27:42.238Z,13.09
2018-06-14T01:28:22.704Z,13.03
2018-06-14T01:29:04.524Z,12.92
2018-06-14T01:29:45.135Z,12.98
2018-06-14T01:30:25.574Z,12.99
2018-06-14T01:31:06.088Z,12.87
2018-06-14T01:31:46.508Z,12.85
2018-06-14T01:32:26.894Z,12.87
2018-06-14T01:33:07.387Z,12.87
2018-06-14T01:33:48.719Z,12.95
2018-06-14T01:34:29.237Z,12.87
2018-06-14T01:35:09.950Z,12.84
2018-06-14T01:35:50.386Z,12.77
2018-06-14T01:36:31.423Z,12.79
2018-06-14T01:37:11.634Z,12.62
2018-06-14T01:37:52.262Z,12.66
2018-06-14T01:38:32.975Z,12.69
2018-06-14T01:39:13.298Z,12.59
2018-06-14T01:39:53.788Z,12.69
2018-06-14T01:40:34.183Z,12.69
2018-06-14T01:41:14.641Z,12.7
2018-06-14T01:41:55.061Z,12.62
2018-06-14T01:42:36.838Z,12.58
2018-06-14T01:43:17.269Z,12.54
2018-06-14T01:43:58.454Z,12.55
2018-06-14T01:44:39.067Z,12.56
2018-06-14T01:45:19.403Z,12.58
2018-06-14T01:45:59.866Z,12.59
2018-06-14T01:46:41.678Z,12.49
2018-06-14T01:47:22.064Z,12.56
2018-06-14T01:48:02.434Z,12.55
2018-06-14T01:48:42.854Z,12.59
2018-06-14T01:49:23.718Z,12.44
2018-06-14T01:50:03.924Z,12.51
2018-06-14T01:50:46.324Z,12.46
2018-06-14T01:51:26.759Z,12.46
2018-06-14T01:52:07.181Z,12.52
2018-06-14T01:52:51.430Z,12.46
2018-06-14T01:53:31.177Z,12.52
2018-06-14T01:54:11.510Z,12.44
2018-06-14T01:54:51.895Z,12.51
2018-06-14T01:55:32.324Z,12.43
2018-06-14T01:56:12.786Z,12.44
2018-06-14T01:56:53.091Z,12.48
2018-06-14T01:57:33.639Z,12.38
2018-06-14T01:58:13.901Z,12.4
2018-06-14T01:58:54.345Z,12.34
2018-06-14T01:59:35.613Z,12.37
2018-06-14T02:00:16.062Z,12.31
2018-06-14T02:00:56.388Z,12.36
2018-06-14T02:01:37.114Z,12.31
2018-06-14T02:02:17.464Z,12.26
2018-06-14T02:02:57.935Z,12.34
2018-06-14T02:03:38.408Z,12.33
2018-06-14T02:04:19.497Z,12.36
2018-06-14T02:05:00.091Z,12.3
2018-06-14T02:05:40.660Z,12.23
2018-06-14T02:06:20.924Z,12.26
2018-06-14T02:07:01.286Z,12.13
2018-06-14T02:07:41.781Z,12.21
2018-06-14T02:08:22.822Z,12.13
2018-06-14T02:09:03.616Z,12.13
2018-06-14T02:09:44.099Z,12.12
2018-06-14T02:10:24.426Z,12.08
2018-06-14T02:11:06.588Z,12.04
2018-06-14T02:11:47.927Z,11.98
2018-06-14T02:12:28.765Z,12
2018-06-14T02:13:11.632Z,11.98
2018-06-14T02:13:51.983Z,11.88
2018-06-14T02:14:32.676Z,11.85
2018-06-14T02:15:13.314Z,11.9
2018-06-14T02:15:53.779Z,11.87
2018-06-14T02:16:34.501Z,11.88
2018-06-14T02:17:15.966Z,12.01
2018-06-14T02:17:56.425Z,12
2018-06-14T02:18:36.766Z,11.93
2018-06-14T02:19:17.096Z,12.11
2018-06-14T02:19:57.578Z,12.11
2018-06-14T02:20:38.017Z,12.05
2018-06-14T02:21:19.252Z,12.08
2018-06-14T02:21:59.345Z,11.94
2018-06-14T02:22:39.732Z,12.03
2018-06-14T02:23:20.500Z,11.96
2018-06-14T02:24:00.746Z,12
2018-06-14T02:24:41.149Z,11.98
2018-06-14T02:25:21.589Z,11.96
2018-06-14T02:26:01.967Z,11.94
2018-06-14T02:26:42.326Z,11.82
2018-06-14T02:27:22.786Z,11.9
2018-06-14T02:28:03.321Z,11.94
2018-06-14T02:28:43.611Z,11.97
2018-06-14T02:29:24.627Z,11.96
2018-06-14T02:30:05.037Z,11.94
2018-06-14T02:30:45.577Z,11.93
2018-06-14T02:31:25.945Z,11.84
2018-06-14T02:32:06.692Z,11.96
2018-06-14T02:32:47.658Z,11.96
2018-06-14T02:33:27.959Z,12
2018-06-14T02:34:08.683Z,11.93
2018-06-14T02:34:49.095Z,11.96
2018-06-14T02:35:29.572Z,11.96
2018-06-14T02:36:10.666Z,12.08
2018-06-14T02:36:52.426Z,12.05
2018-06-14T02:37:33.123Z,12.13
2018-06-14T02:38:13.454Z,11.93
2018-06-14T02:38:53.942Z,12.12
2018-06-14T02:39:35.112Z,12.12
2018-06-14T02:40:15.501Z,12.08
2018-06-14T02:40:55.875Z,11.96
2018-06-14T02:41:36.239Z,12.11
2018-06-14T02:42:16.649Z,12.07
2018-06-14T02:42:57.165Z,12.07
2018-06-14T02:43:37.816Z,12.04
2018-06-14T02:44:17.929Z,12.16
2018-06-14T02:44:58.398Z,12.16
2018-06-14T02:45:38.836Z,12.03
2018-06-14T02:46:19.180Z,12
2018-06-14T02:47:00.769Z,12.13
2018-06-14T02:47:41.129Z,12.08
2018-06-14T02:48:21.506Z,12.13
2018-06-14T02:49:02.486Z,12.01
2018-06-14T02:49:42.916Z,12.08
2018-06-14T02:50:23.214Z,12.05
2018-06-14T02:51:03.664Z,12.01
2018-06-14T02:51:44.045Z,12
2018-06-14T02:52:24.466Z,11.9
2018-06-14T02:53:04.827Z,11.93
2018-06-14T02:53:45.243Z,12.01
2018-06-14T02:54:25.898Z,11.96
2018-06-14T02:55:06.737Z,11.93
2018-06-14T02:55:47.364Z,11.97
2018-06-14T02:56:27.888Z,11.94
2018-06-14T02:57:08.485Z,11.93
2018-06-14T02:57:49.381Z,11.93
2018-06-14T02:58:29.946Z,11.98
2018-06-14T02:59:12.625Z,11.96
2018-06-14T02:59:52.791Z,12.01
2018-06-14T03:00:33.953Z,12
2018-06-14T03:01:16.319Z,11.94
2018-06-14T03:01:56.740Z,12.05
2018-06-14T03:02:37.149Z,12.11
2018-06-14T03:03:18.459Z,11.96
2018-06-14T03:03:59.221Z,11.94
2018-06-14T03:04:39.554Z,11.98
2018-06-14T03:05:20.127Z,11.85
2018-06-14T03:06:00.486Z,11.84
2018-06-14T03:06:40.907Z,11.84
2018-06-14T03:07:21.658Z,11.84
2018-06-14T03:08:02.401Z,11.87
2018-06-14T03:08:43.603Z,11.81
2018-06-14T03:09:26.741Z,11.82
2018-06-14T03:10:07.183Z,11.84
2018-06-14T03:10:47.613Z,11.74
2018-06-14T03:11:28.380Z,11.7
2018-06-14T03:12:09.448Z,11.79
2018-06-14T03:12:50.090Z,11.7
2018-06-14T03:13:30.485Z,11.66
2018-06-14T03:14:11.320Z,11.72
2018-06-14T03:14:54.175Z,11.63
2018-06-14T03:15:34.618Z,11.64
2018-06-14T03:16:15.090Z,11.57
2018-06-14T03:16:56.339Z,11.53
2018-06-14T03:17:37.272Z,11.53
2018-06-14T03:18:17.887Z,11.62
2018-06-14T03:18:58.239Z,11.54
2018-06-14T03:19:38.605Z,11.59
2018-06-14T03:20:19.085Z,11.56
2018-06-14T03:20:59.506Z,11.56
2018-06-14T03:21:40.385Z,11.56
2018-06-14T03:22:22.188Z,11.56
2018-06-14T03:23:02.608Z,11.64
2018-06-14T03:23:44.010Z,11.6
2018-06-14T03:24:24.774Z,11.66
2018-06-14T03:25:07.707Z,11.59
2018-06-14T03:25:48.020Z,11.63
2018-06-14T03:26:28.511Z,11.46
2018-06-14T03:27:09.493Z,11.57
2018-06-14T03:27:49.750Z,11.51
2018-06-14T03:28:30.404Z,11.45
2018-06-14T03:29:10.762Z,11.44
2018-06-14T03:29:51.526Z,11.44
2018-06-14T03:30:33.382Z,11.42
2018-06-14T03:31:13.770Z,11.44
2018-06-14T03:31:54.276Z,11.57
2018-06-14T03:32:35.673Z,11.48
2018-06-14T03:33:16.103Z,11.51
2018-06-14T03:33:56.592Z,11.49
2018-06-14T03:34:37.008Z,11.62
2018-06-14T03:35:17.397Z,11.51
2018-06-14T03:35:58.848Z,11.59
2018-06-14T03:36:39.207Z,11.6
2018-06-14T03:37:19.675Z,11.57
2018-06-14T03:38:03.457Z,11.46
2018-06-14T03:38:43.876Z,11.6
2018-06-14T03:39:24.225Z,11.54
2018-06-14T03:40:04.930Z,11.6
2018-06-14T03:40:45.435Z,11.51
2018-06-14T03:41:25.824Z,11.62
2018-06-14T03:42:06.137Z,11.62
2018-06-14T03:42:46.907Z,11.62
2018-06-14T03:43:27.320Z,11.66
2018-06-14T03:44:09.403Z,11.64
2018-06-14T03:44:48.806Z,11.75
2018-06-14T03:45:29.224Z,11.7
2018-06-14T03:46:09.650Z,11.74
2018-06-14T03:46:50.187Z,11.81
2018-06-14T03:47:30.456Z,11.75
2018-06-14T03:48:10.926Z,11.78
2018-06-14T03:48:51.361Z,11.72
2018-06-14T03:49:31.705Z,11.82
2018-06-14T03:50:12.057Z,11.84
2018-06-14T03:50:52.592Z,11.79
2018-06-14T03:51:32.939Z,11.72
2018-06-14T03:52:13.436Z,11.78
2018-06-14T03:52:53.776Z,11.84
2018-06-14T03:53:34.316Z,11.75
2018-06-14T03:54:14.681Z,11.75
2018-06-14T03:54:55.016Z,11.72
2018-06-14T03:55:35.624Z,11.78
2018-06-14T03:56:15.865Z,11.9
2018-06-14T03:56:56.324Z,11.84
2018-06-14T03:57:36.753Z,11.84
2018-06-14T03:58:17.197Z,11.98
2018-06-14T03:58:57.621Z,11.96
2018-06-14T03:59:38.216Z,11.94
2018-06-14T04:00:18.704Z,11.93
2018-06-14T04:00:59.220Z,11.9
2018-06-14T04:01:41.058Z,11.96
2018-06-14T04:02:21.938Z,11.98
2018-06-14T04:51:38.337Z,14.61
2018-06-14T04:52:18.566Z,14.67
2018-06-14T04:52:59.109Z,14.72
2018-06-14T04:53:39.405Z,14.71
2018-06-14T04:54:19.941Z,14.87
2018-06-14T04:55:00.210Z,15.03
2018-06-14T04:55:40.674Z,15.15
2018-06-14T04:56:21.011Z,15.3
2018-06-14T04:57:01.488Z,15.4
2018-06-14T04:57:42.707Z,15.6
2018-06-14T04:58:23.047Z,15.48
2018-06-14T04:59:03.473Z,15.43
2018-06-14T04:59:43.964Z,15.33
2018-06-14T05:00:24.341Z,15.18
2018-06-14T05:01:04.735Z,15.25
2018-06-14T05:01:45.229Z,15.2
2018-06-14T05:02:26.152Z,15.41
2018-06-14T05:03:06.491Z,15.38
2018-06-14T05:03:46.976Z,15.67
2018-06-14T05:04:27.476Z,15.78
2018-06-14T05:05:07.895Z,16.01
2018-06-14T05:05:48.362Z,16.23
2018-06-14T05:06:28.942Z,16.48
2018-06-14T05:07:09.242Z,16.65
2018-06-14T05:07:49.634Z,16.96
2018-06-14T05:08:30.136Z,16.92
2018-06-14T05:09:10.555Z,17.25
2018-06-14T05:09:50.932Z,17.36
2018-06-14T05:10:31.344Z,17.66
2018-06-14T05:11:12.119Z,17.74
2018-06-14T05:11:52.432Z,17.87
2018-06-14T05:12:32.875Z,18.09
2018-06-14T05:13:13.195Z,18.17
2018-06-14T05:13:53.638Z,18.36
2018-06-14T05:14:34.023Z,18.53
2018-06-14T05:15:14.614Z,18.83
2018-06-14T05:15:54.900Z,18.9
2018-06-14T05:16:35.484Z,19.01
2018-06-14T05:17:17.116Z,19.27
2018-06-14T05:17:57.587Z,19.35
2018-06-14T05:18:37.907Z,19.32
2018-06-14T05:19:18.356Z,19.13
2018-06-14T05:19:58.897Z,19.01
2018-06-14T05:20:39.910Z,18.99
2018-06-14T05:21:20.409Z,19.1
2018-06-14T05:22:00.765Z,19.23
2018-06-14T05:22:41.439Z,19.28
2018-06-14T05:23:21.727Z,19.45
2018-06-14T05:24:02.419Z,19.46
2018-06-14T05:24:42.827Z,19.6
2018-06-14T05:25:23.393Z,19.7
2018-06-14T05:26:03.719Z,19.71
2018-06-14T05:26:44.087Z,19.79
2018-06-14T05:27:24.522Z,19.92
2018-06-14T05:28:04.909Z,19.94
2018-06-14T05:28:45.328Z,19.97
2018-06-14T05:29:25.804Z,19.98
2018-06-14T05:30:21.180Z,19.94
2018-06-14T05:31:01.561Z,19.98
2018-06-14T05:31:42.055Z,20
2018-06-14T05:32:22.384Z,20.04
2018-06-14T05:33:02.949Z,19.97
2018-06-14T05:33:43.256Z,20.05
2018-06-14T05:34:23.964Z,20.05
2018-06-14T05:35:04.209Z,20.08
2018-06-14T05:35:44.690Z,20.13
2018-06-14T05:36:25.988Z,20.2
2018-06-14T05:37:06.390Z,20.3
2018-06-14T05:37:47.130Z,20.27
2018-06-14T05:38:27.551Z,20.46
2018-06-14T05:39:07.899Z,20.66
2018-06-14T05:39:48.404Z,20.58
2018-06-14T05:40:28.817Z,20.71
2018-06-14T05:41:09.257Z,20.88
2018-06-14T05:41:49.656Z,20.96
2018-06-14T05:42:30.265Z,20.97
2018-06-14T05:43:10.710Z,20.9
2018-06-14T05:43:51.105Z,20.82
2018-06-14T05:44:31.718Z,20.64
2018-06-14T05:45:11.983Z,20.61
2018-06-14T05:45:53.559Z,20.5
2018-06-14T05:46:34.228Z,20.51
2018-06-14T05:47:15.182Z,20.51
2018-06-14T05:47:55.844Z,20.5
2018-06-14T05:48:36.573Z,20.6
2018-06-14T05:49:17.395Z,20.68
2018-06-14T05:49:58.070Z,20.72
2018-06-14T05:50:38.505Z,20.69
2018-06-14T05:51:18.995Z,20.61
2018-06-14T05:52:14.585Z,20.76
2018-06-14T05:52:56.010Z,20.35
2018-06-14T05:53:36.158Z,20.16
2018-06-14T05:54:16.460Z,19.89
2018-06-14T05:56:23.557Z,19.76
2018-06-14T05:57:59.161Z,20.07
2018-06-14T05:58:39.524Z,20.16
2018-06-14T05:59:19.976Z,20.33
2018-06-14T06:00:00.628Z,20.58
2018-06-14T06:00:41.274Z,20.68
2018-06-14T06:01:21.942Z,20.93
2018-06-14T06:02:04.166Z,21.09
2018-06-14T06:02:45.412Z,21.19
2018-06-14T06:03:26.917Z,21.28
2018-06-14T06:04:07.310Z,21.24
2018-06-14T06:04:47.819Z,21.38
2018-06-14T06:05:28.268Z,21.48
2018-06-14T06:06:08.553Z,21.63
2018-06-14T06:06:48.949Z,21.75
2018-06-14T06:07:29.464Z,21.85
2018-06-14T06:08:10.032Z,21.94
2018-06-14T06:08:50.427Z,22.09
2018-06-14T06:09:31.028Z,22.29
2018-06-14T06:10:11.524Z,22.39
2018-06-14T06:10:51.953Z,22.56
2018-06-14T06:11:32.369Z,22.7
2018-06-14T06:12:12.836Z,22.72
2018-06-14T06:12:53.217Z,22.7
2018-06-14T06:13:33.899Z,22.78
2018-06-14T06:14:14.275Z,22.82
2018-06-14T06:14:54.763Z,22.89
2018-06-14T06:15:35.340Z,22.86
2018-06-14T06:16:15.778Z,22.93
2018-06-14T06:16:56.234Z,22.91
2018-06-14T06:17:36.580Z,23.07
2018-06-14T06:18:17.019Z,23.03
2018-06-14T06:18:57.747Z,23.07
2018-06-14T06:19:41.306Z,23.12
2018-06-14T06:20:21.815Z,23.12
2018-06-14T06:21:02.229Z,23.26
2018-06-14T06:21:42.713Z,23.22
2018-06-14T06:22:23.040Z,23.16
2018-06-14T06:23:03.469Z,23.34
2018-06-14T06:23:43.936Z,23.38
2018-06-14T06:24:24.586Z,23.31
2018-06-14T06:25:04.949Z,23.22
2018-06-14T06:25:45.410Z,23.21
2018-06-14T06:26:25.972Z,23.29
2018-06-14T06:27:06.261Z,23.35
2018-06-14T06:27:46.713Z,23.22
2018-06-14T06:28:28.092Z,23.03
2018-06-14T06:29:08.422Z,22.99
2018-06-14T06:29:48.935Z,22.99
2018-06-14T06:30:29.345Z,22.79
2018-06-14T06:31:09.725Z,22.64
2018-06-14T06:31:50.133Z,22.59
2018-06-14T06:32:30.559Z,22.46
2018-06-14T06:33:11.132Z,22.36
2018-06-14T06:33:51.526Z,22.19
2018-06-14T06:34:32.141Z,22.24
2018-06-14T06:35:12.425Z,22.12
2018-06-14T06:35:53.626Z,22.11
2018-06-14T06:36:33.934Z,22.2
2018-06-14T06:37:14.470Z,22.31
2018-06-14T06:37:54.891Z,22.29
2018-06-14T06:38:35.231Z,22.46
2018-06-14T06:39:15.809Z,22.56
2018-06-14T06:39:56.161Z,22.57
2018-06-14T06:40:36.564Z,22.56
2018-06-14T06:41:17.073Z,22.63
2018-06-14T06:41:57.556Z,22.61
2018-06-14T06:42:37.964Z,22.61
2018-06-14T06:43:18.424Z,22.7
2018-06-14T06:45:18.771Z,22.56
2018-06-14T06:46:46.958Z,22.38
2018-06-14T06:47:27.461Z,22.45
2018-06-14T06:48:07.869Z,22.39
2018-06-14T06:48:48.313Z,22.29
2018-06-14T06:49:28.754Z,22.31
2018-06-14T06:50:09.236Z,22.27
2018-06-14T06:50:49.576Z,22.02
2018-06-14T06:51:30.189Z,21.99
2018-06-14T06:52:10.800Z,21.96
2018-06-14T06:52:51.221Z,21.98
2018-06-14T06:53:31.638Z,21.96
2018-06-14T06:54:12.109Z,22.12
2018-06-14T06:54:52.536Z,22.12
2018-06-14T06:55:33.295Z,22.14
2018-06-14T06:56:13.598Z,22.08
2018-06-14T06:56:54.096Z,22.06
2018-06-14T06:57:34.559Z,22.14
2018-06-14T06:58:14.962Z,22.17
2018-06-14T06:58:55.461Z,22.29
2018-06-14T06:59:36.967Z,22.46
2018-06-14T07:00:17.504Z,22.52
2018-06-14T07:00:58.439Z,22.63
2018-06-14T07:01:39.260Z,22.82
2018-06-14T07:02:20.084Z,22.86
2018-06-14T07:03:00.565Z,22.96
2018-06-14T07:03:41.455Z,22.99
2018-06-14T07:04:21.882Z,23.09
2018-06-14T07:05:02.712Z,23.04
2018-06-14T07:05:43.191Z,23.12
2018-06-14T07:06:23.711Z,22.89
2018-06-14T07:07:04.126Z,22.94
2018-06-14T07:07:44.597Z,23.07
2018-06-14T07:08:26.204Z,23.06
2018-06-14T07:09:06.500Z,23.19
2018-06-14T07:09:46.930Z,23.21
2018-06-14T07:10:27.484Z,23.21
2018-06-14T07:11:10.171Z,23.18
2018-06-14T07:11:50.345Z,23.15
2018-06-14T07:12:30.873Z,23.11
2018-06-14T07:13:11.429Z,23.12
2018-06-14T07:13:51.703Z,23.11
2018-06-14T07:14:32.235Z,23.19
2018-06-14T07:15:12.762Z,23.07
2018-06-14T07:15:53.055Z,22.93
2018-06-14T07:16:33.520Z,22.94
2018-06-14T07:17:13.928Z,22.99
2018-06-14T07:17:54.255Z,23.09
2018-06-14T07:18:34.821Z,23.32
2018-06-14T07:19:15.249Z,23.21
2018-06-14T07:19:55.821Z,23.23
2018-06-14T07:20:37.045Z,23.16
2018-06-14T07:21:17.297Z,23.23
2018-06-14T07:21:57.835Z,23.34
2018-06-14T07:22:38.135Z,23.45
2018-06-14T07:23:18.557Z,23.64
2018-06-14T07:23:59.071Z,23.75
2018-06-14T07:24:39.559Z,23.93
2018-06-14T07:25:20.001Z,23.94
2018-06-14T07:26:01.243Z,24.06
2018-06-14T07:26:42.975Z,24.19
2018-06-14T07:27:22.426Z,24.08
2018-06-14T07:28:04.991Z,24.16
2018-06-14T07:28:45.535Z,24.3
2018-06-14T07:29:25.807Z,24.41
2018-06-14T07:30:06.255Z,24.68
2018-06-14T07:30:46.961Z,24.86
2018-06-14T07:31:27.109Z,25.05
2018-06-14T07:32:07.516Z,25.27
2018-06-14T07:32:47.952Z,25.35
2018-06-14T07:33:29.193Z,25.46
2018-06-14T07:34:09.565Z,25.36
2018-06-14T07:34:49.995Z,25.48
2018-06-14T07:35:30.486Z,25.59
2018-06-14T07:36:11.015Z,25.39
2018-06-14T07:36:51.806Z,25.41
2018-06-14T07:37:32.437Z,25.3
2018-06-14T07:38:12.673Z,25.36
2018-06-14T07:38:53.069Z,25.46
2018-06-14T07:39:33.535Z,25.63
2018-06-14T07:40:13.987Z,25.79
2018-06-14T07:40:54.363Z,26.16
2018-06-14T07:41:34.897Z,26.31
2018-06-14T07:42:15.194Z,26.34
2018-06-14T07:42:55.729Z,26.42
2018-06-14T07:43:36.232Z,26.53
2018-06-14T07:44:16.715Z,26.69
2018-06-14T07:44:57.181Z,26.81
2018-06-14T07:45:37.670Z,27.03
2018-06-14T07:46:18.408Z,27.02
2018-06-14T07:46:59.043Z,27.06
2018-06-14T07:47:39.471Z,26.84
2018-06-14T07:48:19.977Z,26.61
2018-06-14T07:49:00.481Z,26.57
2018-06-14T07:49:41.154Z,26.6
2018-06-14T07:50:23.590Z,26.71
2018-06-14T07:51:04.070Z,26.81
2018-06-14T07:51:44.807Z,27.03
2018-06-14T07:53:35.839Z,27.38
2018-06-14T07:54:46.453Z,27.66
2018-06-14T07:57:19.663Z,27.55
2018-06-14T07:58:01.529Z,27.42
2018-06-14T07:58:41.948Z,27.31
2018-06-14T07:59:22.677Z,27.25
2018-06-14T08:00:03.084Z,27.27
2018-06-14T08:00:43.684Z,27.35
2018-06-14T08:01:24.363Z,27.39
2018-06-14T08:02:05.037Z,27.38
2018-06-14T08:02:46.349Z,27.39
2018-06-14T08:03:26.307Z,27.25
2018-06-14T08:04:07.086Z,27.24
2018-06-14T08:04:47.629Z,27.23
2018-06-14T08:05:28.091Z,27.42
2018-06-14T08:06:08.656Z,27.55
2018-06-14T08:06:49.046Z,27.55
2018-06-14T08:07:29.451Z,27.53
2018-06-14T08:08:09.984Z,27.53
2018-06-14T08:10:11.495Z,26.98
2018-06-14T08:10:57.411Z,26.96
2018-06-14T08:11:41.984Z,26.97
2018-06-14T08:12:27.146Z,27.02
2018-06-14T08:13:08.248Z,26.68
2018-06-14T08:13:53.837Z,26.65
2018-06-14T08:14:53.039Z,26.76
2018-06-14T08:15:35.891Z,26.91
2018-06-14T08:16:19.778Z,26.71
2018-06-14T08:17:07.890Z,26.59
2018-06-14T08:17:52.492Z,26.23
2018-06-14T08:18:36.003Z,25.83
2018-06-14T08:19:19.730Z,25.6
2018-06-14T08:20:03.901Z,25.71
2018-06-14T08:20:44.103Z,25.82
2018-06-14T08:24:07.400Z,26.5
2018-06-14T08:24:47.489Z,26.54
2018-06-14T08:25:28.005Z,26.6
2018-06-14T08:26:08.801Z,26.75
2018-06-14T08:26:49.202Z,26.83
2018-06-14T08:27:29.963Z,26.98
2018-06-14T08:28:10.461Z,27.18
2018-06-14T08:28:51.034Z,26.87
2018-06-14T08:29:31.301Z,26.53
2018-06-14T08:30:13.647Z,26.35
2018-06-14T08:30:53.930Z,25.93
2018-06-14T08:31:34.434Z,25.82
2018-06-14T08:32:14.866Z,25.94
2018-06-14T08:32:57.003Z,25.69
2018-06-14T08:34:45.764Z,25.57
2018-06-14T08:35:27.253Z,25.61
2018-06-14T08:36:08.746Z,25.71
2018-06-14T08:36:49.048Z,25.86
2018-06-14T08:37:29.491Z,25.97
2018-06-14T08:38:09.894Z,26.2
2018-06-14T08:38:51.173Z,26.42
2018-06-14T08:39:32.155Z,26.69
2018-06-14T08:40:12.729Z,26.87
2018-06-14T08:40:53.209Z,27.08
2018-06-14T08:42:43.423Z,27.28
2018-06-14T08:43:24.314Z,27.27
2018-06-14T08:44:05.792Z,27.28
2018-06-14T08:44:47.621Z,27.28
2018-06-14T08:45:30.362Z,27.33
2018-06-14T08:46:13.806Z,27.43
2018-06-14T08:46:56.273Z,27.5
2018-06-14T08:47:36.679Z,27.45
2018-06-14T08:48:17.263Z,27.48
2018-06-14T08:48:58.299Z,27.5
2018-06-14T08:49:39.123Z,27.49
2018-06-14T08:50:21.730Z,27.5
2018-06-14T08:51:02.109Z,27.42
2018-06-14T08:51:43.438Z,27.35
2018-06-14T08:52:25.111Z,27.11
2018-06-14T08:53:06.275Z,26.97
2018-06-14T08:53:46.745Z,26.91
2018-06-14T08:54:27.866Z,26.84
2018-06-14T08:55:08.496Z,26.81
2018-06-14T08:59:18.761Z,26.35
2018-06-14T08:59:58.029Z,26.24
2018-06-14T09:00:38.495Z,26.16
2018-06-14T09:01:19.039Z,25.83
2018-06-14T09:01:59.511Z,25.63
2018-06-14T09:02:40.838Z,25.39
2018-06-14T09:03:21.087Z,25.44
2018-06-14T09:04:02.001Z,25.49
2018-06-14T09:04:42.718Z,25.48
2018-06-14T09:05:24.322Z,25.53
2018-06-14T09:06:04.791Z,25.56
2018-06-14T09:06:45.661Z,25.6
2018-06-14T09:07:26.232Z,25.61
2018-06-14T09:08:06.884Z,25.67
2018-06-14T09:08:48.481Z,25.6
2018-06-14T09:09:29.795Z,25.71
2018-06-14T09:10:10.769Z,25.83
2018-06-14T09:10:51.317Z,25.82
2018-06-14T09:11:32.588Z,25.94
2018-06-14T09:12:15.312Z,26.03
2018-06-14T09:12:55.782Z,26.11
2018-06-14T09:13:36.246Z,26.21
2018-06-14T09:14:17.425Z,26.21
2018-06-14T09:14:57.968Z,26.2
2018-06-14T09:15:39.073Z,26.36
2018-06-14T09:16:20.909Z,26.44
2018-06-14T09:17:01.603Z,26.61
2018-06-14T09:17:42.179Z,26.64
2018-06-14T09:18:22.660Z,26.69
2018-06-14T09:19:04.045Z,26.65
2018-06-14T09:19:46.953Z,26.87
2018-06-14T09:20:28.051Z,27.02
2018-06-14T09:21:08.735Z,27.15
2018-06-14T09:21:49.753Z,27.23
2018-06-14T09:22:30.358Z,27.23
2018-06-14T09:23:11.069Z,27.23
2018-06-14T09:23:51.831Z,27.43
2018-06-14T09:24:32.171Z,27.59
2018-06-14T09:25:13.301Z,27.8
2018-06-14T09:25:53.559Z,27.96
2018-06-14T09:26:34.079Z,28.14
2018-06-14T09:27:14.660Z,28.21
2018-06-14T09:27:56.316Z,28.3
2018-06-14T09:28:36.803Z,28.69
2018-06-14T09:29:17.289Z,28.69
2018-06-14T09:29:58.143Z,28.72
2018-06-14T09:31:55.900Z,28.91
2018-06-14T09:32:38.224Z,29.02
2018-06-14T09:33:18.492Z,28.95
2018-06-14T09:33:59.056Z,29.15
2018-06-14T09:34:39.896Z,29.21
2018-06-14T09:35:20.639Z,29.41
2018-06-14T09:36:00.862Z,29.57
2018-06-14T09:36:41.434Z,29.49
2018-06-14T09:37:21.864Z,29.39
2018-06-14T09:38:02.283Z,28.94
2018-06-14T09:38:42.782Z,28.91
2018-06-14T09:39:23.657Z,28.88
2018-06-14T09:40:04.274Z,28.82
2018-06-14T09:40:44.409Z,28.95
2018-06-14T09:41:24.882Z,29
2018-06-14T09:42:05.455Z,29.08
2018-06-14T09:42:45.879Z,29.33
2018-06-14T09:43:26.329Z,29.37
2018-06-14T09:44:06.979Z,29.49
2018-06-14T09:44:47.388Z,29.49
2018-06-14T09:45:27.851Z,29.44
2018-06-14T09:46:08.390Z,29.6
2018-06-14T09:46:48.784Z,29.7
2018-06-14T09:47:30.993Z,29.66
2018-06-14T09:48:11.897Z,29.29
2018-06-14T09:48:52.317Z,29.12
2018-06-14T09:49:33.120Z,29.1
2018-06-14T09:50:14.342Z,29.1
2018-06-14T09:50:54.813Z,29.25
2018-06-14T09:51:35.295Z,29.37
2018-06-14T09:52:15.799Z,29.45
2018-06-14T09:52:57.379Z,29.62
2018-06-14T09:53:37.871Z,29.73
2018-06-14T09:54:17.621Z,29.79